createdAt,value
2023-03-12T00:01:21.349Z,98411.90
2023-03-12T00:03:50.380Z,98414.25
2023-03-12T00:06:19.545Z,98418.50
2023-03-12T00:08:48.661Z,98417.02
2023-03-12T00:11:19.476Z,98423.30
2023-03-12T00:13:52.673Z,98427.63
2023-03-12T00:16:22.348Z,98434.12
2023-03-12T00:18:52.889Z,98430.16
2023-03-12T00:21:22.475Z,98434.44
2023-03-12T00:23:51.887Z,98432.51
2023-03-12T00:26:21.996Z,98431.98
2023-03-12T00:28:51.724Z,98429.36
2023-03-12T00:31:23.943Z,98430.58
2023-03-12T00:33:52.165Z,98432.73
2023-03-12T00:36:24.992Z,98435.02
2023-03-12T00:38:54.573Z,98438.47
2023-03-12T00:41:24.180Z,98437.08
2023-03-12T00:43:53.050Z,98442.36
2023-03-12T00:46:21.882Z,98445.85
2023-03-12T00:48:50.595Z,98450.42
2023-03-12T00:51:18.969Z,98452.12
2023-03-12T00:53:47.268Z,98457.95
2023-03-12T00:56:15.692Z,98458.00
2023-03-12T00:58:43.848Z,98463.05
2023-03-12T01:01:12.551Z,98464.44
2023-03-12T01:03:40.948Z,98462.48
2023-03-12T01:06:09.330Z,98462.80
2023-03-12T01:08:39.657Z,98459.55
2023-03-12T01:11:07.944Z,98462.14
2023-03-12T01:13:36.281Z,98459.92
2023-03-12T01:16:04.958Z,98459.15
2023-03-12T01:18:33.083Z,98464.39
2023-03-12T01:21:01.248Z,98463.23
2023-03-12T01:23:29.792Z,98467.48
2023-03-12T01:25:58.475Z,98467.48
2023-03-12T01:28:27.129Z,98475.14
2023-03-12T01:30:55.307Z,98475.52
2023-03-12T01:33:23.560Z,98477.77
2023-03-12T01:35:51.865Z,98481.41
2023-03-12T01:38:21.028Z,98484.39
2023-03-12T01:40:50.705Z,98485.05
2023-03-12T01:43:39.344Z,98488.49
2023-03-12T01:46:27.776Z,98489.41
2023-03-12T01:49:02.394Z,98488.74
2023-03-12T01:52:00.146Z,98492.77
2023-03-12T01:54:47.749Z,98494.35
2023-03-12T01:57:21.177Z,98504.73
2023-03-12T01:59:54.449Z,98507.74
2023-03-12T02:02:27.261Z,98504.30
2023-03-12T02:05:22.395Z,98502.31
2023-03-12T02:07:50.887Z,98504.21
2023-03-12T02:10:19.769Z,98507.63
2023-03-12T02:12:47.952Z,98514.86
2023-03-12T02:15:16.976Z,98511.29
2023-03-12T02:17:45.252Z,98515.36
2023-03-12T02:20:26.868Z,98519.07
2023-03-12T02:23:05.874Z,98520.62
2023-03-12T02:25:41.019Z,98531.55
2023-03-12T02:28:10.753Z,98536.77
2023-03-12T02:30:43.010Z,98533.65
2023-03-12T02:33:16.257Z,98538.52
2023-03-12T02:35:47.186Z,98542.68
2023-03-12T02:38:41.209Z,98546.45
2023-03-12T02:41:25.519Z,98549.89
2023-03-12T02:44:04.520Z,98551.03
2023-03-12T02:46:36.078Z,98555.31
2023-03-12T02:49:04.604Z,98556.59
2023-03-12T02:51:32.788Z,98556.33
2023-03-12T02:54:01.054Z,98562.09
2023-03-12T02:56:31.437Z,98563.52
2023-03-12T02:59:01.521Z,98569.27
2023-03-12T03:01:34.349Z,98571.70
2023-03-12T03:04:05.265Z,98571.29
2023-03-12T03:06:35.726Z,98571.55
2023-03-12T03:09:05.528Z,98575.82
2023-03-12T03:11:33.994Z,98580.25
2023-03-12T03:14:04.451Z,98587.16
2023-03-12T03:16:33.428Z,98586.95
2023-03-12T03:19:02.058Z,98588.66
2023-03-12T03:21:30.822Z,98593.44
2023-03-12T03:23:59.633Z,98597.89
2023-03-12T03:26:28.017Z,98595.59
2023-03-12T03:28:56.705Z,98596.09
2023-03-12T03:31:25.006Z,98597.10
2023-03-12T03:33:53.306Z,98599.36
2023-03-12T03:36:23.390Z,98603.70
2023-03-12T03:38:58.405Z,98605.95
2023-03-12T03:41:27.030Z,98608.38
2023-03-12T03:43:58.508Z,98612.56
2023-03-12T03:46:27.015Z,98612.21
2023-03-12T03:49:04.950Z,98622.92
2023-03-12T03:51:33.765Z,98625.55
2023-03-12T03:54:06.081Z,98628.89
2023-03-12T03:56:35.047Z,98625.29
2023-03-12T03:59:04.468Z,98630.02
2023-03-12T04:01:33.984Z,98630.52
2023-03-12T04:04:04.130Z,98636.40
2023-03-12T04:06:33.560Z,98633.55
2023-03-12T04:09:01.880Z,98636.42
2023-03-12T04:11:30.810Z,98639.09
2023-03-12T04:13:59.335Z,98640.55
2023-03-12T04:16:30.041Z,98643.69
2023-03-12T04:18:58.733Z,98644.18
2023-03-12T04:21:27.392Z,98648.89
2023-03-12T04:23:55.836Z,98646.45
2023-03-12T04:26:26.916Z,98651.02
2023-03-12T04:28:57.159Z,98652.65
2023-03-12T04:31:25.954Z,98654.80
2023-03-12T04:33:54.235Z,98650.35
2023-03-12T04:36:25.612Z,98648.71
2023-03-12T04:38:56.431Z,98650.04
2023-03-12T04:41:28.319Z,98648.90
2023-03-12T04:44:02.599Z,98648.14
2023-03-12T04:46:31.843Z,98651.38
2023-03-12T04:49:02.772Z,98652.91
2023-03-12T04:51:32.398Z,98658.45
2023-03-12T04:54:02.737Z,98657.23
2023-03-12T04:56:31.050Z,98657.23
2023-03-12T04:58:59.837Z,98660.15
2023-03-12T05:01:32.421Z,98661.30
2023-03-12T05:04:03.161Z,98663.83
2023-03-12T05:06:32.202Z,98663.02
2023-03-12T05:09:00.562Z,98663.29
2023-03-12T05:11:29.525Z,98664.27
2023-03-12T05:13:57.795Z,98661.09
2023-03-12T05:16:27.999Z,98666.44
2023-03-12T05:18:56.504Z,98666.83
2023-03-12T05:21:25.361Z,98670.33
2023-03-12T05:23:55.458Z,98670.56
2023-03-12T05:26:31.735Z,98671.93
2023-03-12T05:29:19.815Z,98678.30
2023-03-12T05:31:48.297Z,98677.76
2023-03-12T05:34:17.486Z,98674.72
2023-03-12T05:36:46.978Z,98677.61
2023-03-12T05:39:18.018Z,98676.68
2023-03-12T05:41:46.614Z,98679.05
2023-03-12T05:44:18.320Z,98681.52
2023-03-12T05:46:52.031Z,98677.73
2023-03-12T05:49:21.288Z,98675.48
2023-03-12T05:51:50.782Z,98678.78
2023-03-12T05:54:20.342Z,98680.70
2023-03-12T05:56:49.387Z,98681.41
2023-03-12T05:59:17.848Z,98681.91
2023-03-12T06:01:46.965Z,98685.15
2023-03-12T06:04:15.585Z,98684.77
2023-03-12T06:06:43.842Z,98687.90
2023-03-12T06:09:12.329Z,98693.53
2023-03-12T06:11:40.701Z,98695.13
2023-03-12T06:14:09.676Z,98702.45
2023-03-12T06:16:39.013Z,98708.06
2023-03-12T06:19:08.430Z,98716.09
2023-03-12T06:21:36.728Z,98719.95
2023-03-12T06:24:07.625Z,98722.05
2023-03-12T06:26:43.566Z,98723.76
2023-03-12T06:29:12.021Z,98727.45
2023-03-12T06:31:42.197Z,98727.77
2023-03-12T06:34:10.766Z,98730.29
2023-03-12T06:36:39.074Z,98732.35
2023-03-12T06:39:08.417Z,98733.88
2023-03-12T06:41:37.070Z,98735.61
2023-03-12T06:44:06.649Z,98735.78
2023-03-12T06:46:35.259Z,98733.30
2023-03-12T06:49:04.075Z,98734.98
2023-03-12T06:51:32.830Z,98735.81
2023-03-12T06:54:16.854Z,98735.30
2023-03-12T06:56:46.118Z,98745.73
2023-03-12T06:59:14.394Z,98744.00
2023-03-12T07:01:42.620Z,98751.09
2023-03-12T07:04:10.904Z,98752.40
2023-03-12T07:06:39.964Z,98753.10
2023-03-12T07:09:09.494Z,98758.08
2023-03-12T07:11:38.519Z,98760.88
2023-03-12T07:14:21.526Z,98762.95
2023-03-12T07:16:50.121Z,98769.48
2023-03-12T07:19:19.565Z,98765.98
2023-03-12T07:21:47.914Z,98763.63
2023-03-12T07:24:16.172Z,98759.33
2023-03-12T07:26:44.457Z,98767.20
2023-03-12T07:29:12.815Z,98768.35
2023-03-12T07:31:41.139Z,98760.95
2023-03-12T07:34:09.499Z,98755.69
2023-03-12T07:36:38.157Z,98752.70
2023-03-12T07:39:06.645Z,98758.55
2023-03-12T07:41:37.433Z,98758.89
2023-03-12T07:44:06.385Z,98758.79
2023-03-12T07:46:34.832Z,98760.17
2023-03-12T07:49:04.546Z,98756.70
2023-03-12T07:51:35.962Z,98765.58
2023-03-12T07:54:04.405Z,98757.85
2023-03-12T07:56:35.195Z,98755.50
2023-03-12T07:59:05.790Z,98751.73
2023-03-12T08:01:34.414Z,98751.68
2023-03-12T08:04:02.956Z,98750.70
2023-03-12T08:06:31.749Z,98747.30
2023-03-12T08:09:00.012Z,98748.95
2023-03-12T08:11:28.507Z,98748.91
2023-03-12T08:13:56.749Z,98752.49
2023-03-12T08:16:28.586Z,98750.20
2023-03-12T08:18:57.292Z,98747.98
2023-03-12T08:21:25.610Z,98748.71
2023-03-12T08:23:53.918Z,98754.19
2023-03-12T08:26:22.238Z,98758.14
2023-03-12T08:28:51.857Z,98760.13
2023-03-12T08:31:20.097Z,98758.23
2023-03-12T08:33:48.415Z,98761.04
2023-03-12T08:36:18.748Z,98758.48
2023-03-12T08:38:48.313Z,98754.15
2023-03-12T08:41:17.740Z,98755.45
2023-03-12T08:43:46.964Z,98756.02
2023-03-12T08:46:15.638Z,98751.41
2023-03-12T08:48:44.080Z,98750.13
2023-03-12T08:51:17.249Z,98753.17
2023-03-12T08:53:45.558Z,98756.15
2023-03-12T08:56:13.907Z,98763.73
2023-03-12T08:58:42.264Z,98762.30
2023-03-12T09:01:13.094Z,98764.94
2023-03-12T09:03:41.980Z,98766.78
2023-03-12T09:06:19.894Z,98768.00
2023-03-12T09:08:49.535Z,98769.89
2023-03-12T09:11:18.132Z,98772.10
2023-03-12T09:16:34.904Z,98774.13
2023-03-12T09:19:03.801Z,98773.81
2023-03-12T09:21:32.059Z,98770.73
2023-03-12T09:24:00.539Z,98773.73
2023-03-12T09:26:28.983Z,98774.79
2023-03-12T09:28:58.005Z,98769.86
2023-03-12T09:31:26.906Z,98770.98
2023-03-12T09:33:55.199Z,98768.48
2023-03-12T09:36:23.445Z,98770.73
2023-03-12T09:38:51.715Z,98771.52
2023-03-12T09:41:23.423Z,98771.59
2023-03-12T09:44:01.828Z,98774.98
2023-03-12T09:46:37.149Z,98773.70
2023-03-12T09:52:36.559Z,98776.29
2023-03-12T09:55:12.644Z,98780.42
2023-03-12T09:57:45.520Z,98776.92
2023-03-12T10:00:25.141Z,98778.08
2023-03-12T10:03:02.632Z,98775.59
2023-03-12T10:05:30.945Z,98775.20
2023-03-12T10:08:25.284Z,98771.20
2023-03-12T10:11:00.124Z,98764.88
2023-03-12T10:13:54.361Z,98766.09
2023-03-12T10:16:39.774Z,98766.35
2023-03-12T10:19:26.343Z,98755.04
2023-03-12T10:22:34.755Z,98750.09
2023-03-12T10:25:30.840Z,98749.62
2023-03-12T10:28:19.888Z,98743.09
2023-03-12T10:31:04.737Z,98741.43
2023-03-12T10:34:00.461Z,98739.93
2023-03-12T10:36:40.178Z,98743.09
2023-03-12T10:39:18.326Z,98743.00
2023-03-12T10:41:48.651Z,98745.36
2023-03-12T10:44:21.983Z,98742.38
2023-03-12T10:47:08.286Z,98748.80
2023-03-12T10:49:42.533Z,98750.31
2023-03-12T10:52:19.032Z,98751.38
2023-03-12T10:54:52.993Z,98757.23
2023-03-12T10:57:21.705Z,98760.10
2023-03-12T10:59:51.466Z,98759.41
2023-03-12T11:02:41.992Z,98761.77
2023-03-12T11:05:54.873Z,98763.30
2023-03-12T11:08:30.495Z,98761.81
2023-03-12T11:11:05.228Z,98764.83
2023-03-12T11:14:15.884Z,98768.59
2023-03-12T11:16:51.033Z,98769.61
2023-03-12T11:19:32.099Z,98770.91
2023-03-12T11:22:09.049Z,98766.71
2023-03-12T11:25:00.112Z,98766.13
2023-03-12T11:27:49.894Z,98768.37
2023-03-12T11:30:33.686Z,98770.05
2023-03-12T11:33:04.230Z,98767.09
2023-03-12T11:35:49.652Z,98769.71
2023-03-12T11:38:57.313Z,98772.84
2023-03-12T11:41:41.028Z,98774.71
2023-03-12T11:44:24.534Z,98773.20
2023-03-12T11:47:18.521Z,98773.64
2023-03-12T11:50:21.491Z,98777.33
2023-03-12T11:53:03.126Z,98773.94
2023-03-12T11:55:55.689Z,98771.70
2023-03-12T11:58:49.089Z,98774.73
2023-03-12T12:01:34.168Z,98781.61
2023-03-12T12:04:20.785Z,98786.21
2023-03-12T12:06:54.835Z,98788.05
2023-03-12T12:09:38.942Z,98792.43
2023-03-12T12:12:26.833Z,98801.22
2023-03-12T12:15:33.112Z,98805.85
2023-03-12T12:18:16.719Z,98799.20
2023-03-12T12:20:57.521Z,98792.80
2023-03-12T12:23:44.315Z,98792.58
2023-03-12T12:26:14.136Z,98796.07
2023-03-12T12:28:42.392Z,98794.70
2023-03-12T12:31:29.300Z,98794.80
2023-03-12T12:34:35.566Z,98795.33
2023-03-12T12:37:22.371Z,98796.48
2023-03-12T12:39:59.899Z,98791.58
2023-03-12T12:42:33.022Z,98794.48
2023-03-12T12:45:10.967Z,98788.61
2023-03-12T12:48:01.495Z,98788.50
2023-03-12T12:50:37.740Z,98793.85
2023-03-12T12:53:39.208Z,98790.55
2023-03-12T12:57:05.238Z,98787.36
2023-03-12T13:00:04.725Z,98790.67
2023-03-12T13:02:39.902Z,98791.41
2023-03-12T13:05:26.008Z,98791.66
2023-03-12T13:07:57.900Z,98790.85
2023-03-12T13:10:48.592Z,98798.15
2023-03-12T13:13:28.985Z,98801.03
2023-03-12T13:16:35.989Z,98801.88
2023-03-12T13:19:22.640Z,98799.41
2023-03-12T13:22:08.654Z,98802.90
2023-03-12T13:25:18.905Z,98802.18
2023-03-12T13:27:47.461Z,98803.69
2023-03-12T13:30:34.862Z,98798.18
2023-03-12T13:33:12.578Z,98794.73
2023-03-12T13:36:15.706Z,98794.37
2023-03-12T13:38:58.966Z,98794.98
2023-03-12T13:41:37.997Z,98798.47
2023-03-12T13:44:29.114Z,98800.53
2023-03-12T13:47:30.523Z,98803.81
2023-03-12T13:50:08.357Z,98801.95
2023-03-12T13:52:39.672Z,98803.61
2023-03-12T13:55:14.229Z,98805.02
2023-03-12T13:57:48.636Z,98798.49
2023-03-12T14:00:46.677Z,98799.48
2023-03-12T14:03:21.984Z,98803.41
2023-03-12T14:06:09.361Z,98805.64
2023-03-12T14:09:12.458Z,98809.98
2023-03-12T14:11:50.766Z,98812.75
2023-03-12T14:14:29.841Z,98808.14
2023-03-12T14:17:01.544Z,98810.88
2023-03-12T14:19:33.130Z,98807.84
2023-03-12T14:22:05.952Z,98803.08
2023-03-12T14:24:41.633Z,98802.70
2023-03-12T14:27:21.856Z,98799.52
2023-03-12T14:29:58.172Z,98801.40
2023-03-12T14:32:31.993Z,98801.77
2023-03-12T14:35:21.121Z,98803.56
2023-03-12T14:38:20.122Z,98800.41
2023-03-12T14:40:53.485Z,98801.41
2023-03-12T14:43:34.482Z,98802.84
2023-03-12T14:46:06.534Z,98795.96
2023-03-12T14:48:37.838Z,98800.25
2023-03-12T14:51:08.178Z,98803.92
2023-03-12T14:53:38.352Z,98807.10
2023-03-12T14:56:21.034Z,98815.20
2023-03-12T14:58:50.637Z,98811.23
2023-03-12T15:01:30.226Z,98812.57
2023-03-12T15:04:05.256Z,98814.79
2023-03-12T15:06:56.852Z,98817.75
2023-03-12T15:09:30.674Z,98822.59
2023-03-12T15:12:06.112Z,98822.49
2023-03-12T15:14:42.426Z,98824.55
2023-03-12T15:17:22.393Z,98829.87
2023-03-12T15:19:54.807Z,98835.02
2023-03-12T15:22:28.005Z,98838.19
2023-03-12T15:25:03.233Z,98840.68
2023-03-12T15:27:33.944Z,98846.11
2023-03-12T15:30:22.002Z,98849.79
2023-03-12T15:33:21.991Z,98851.48
2023-03-12T15:36:00.017Z,98852.80
2023-03-12T15:38:31.411Z,98857.00
2023-03-12T15:41:06.741Z,98855.16
2023-03-12T15:43:37.757Z,98853.02
2023-03-12T15:46:07.226Z,98859.35
2023-03-12T15:48:41.169Z,98857.23
2023-03-12T15:51:34.405Z,98860.52
2023-03-12T15:54:27.269Z,98861.55
2023-03-12T15:57:23.227Z,98858.12
2023-03-12T16:00:12.152Z,98855.58
2023-03-12T16:02:47.055Z,98857.77
2023-03-12T16:05:15.484Z,98859.46
2023-03-12T16:07:43.655Z,98863.37
2023-03-12T16:10:17.843Z,98865.17
2023-03-12T16:12:47.450Z,98866.27
2023-03-12T16:15:28.018Z,98861.03
2023-03-12T16:17:56.525Z,98858.71
2023-03-12T16:20:24.819Z,98858.70
2023-03-12T16:22:54.148Z,98859.16
2023-03-12T16:25:24.007Z,98865.82
2023-03-12T16:27:57.035Z,98871.98
2023-03-12T16:30:38.001Z,98880.04
2023-03-12T16:33:09.200Z,98876.70
2023-03-12T16:35:38.201Z,98882.31
2023-03-12T16:38:07.426Z,98886.69
2023-03-12T16:40:39.242Z,98890.67
2023-03-12T16:43:16.010Z,98895.17
2023-03-12T16:45:47.146Z,98896.42
2023-03-12T16:48:19.213Z,98895.13
2023-03-12T16:50:51.013Z,98892.81
2023-03-12T16:53:19.995Z,98889.69
2023-03-12T16:56:01.367Z,98888.11
2023-03-12T16:58:30.716Z,98882.02
2023-03-12T17:01:00.213Z,98877.85
2023-03-12T17:03:44.328Z,98888.61
2023-03-12T17:06:22.101Z,98890.98
2023-03-12T17:08:51.432Z,98889.48
2023-03-12T17:11:30.251Z,98892.90
2023-03-12T17:14:01.440Z,98891.41
2023-03-12T17:16:30.372Z,98895.86
2023-03-12T17:18:58.688Z,98900.70
2023-03-12T17:21:27.051Z,98902.89
2023-03-12T17:23:55.421Z,98905.42
2023-03-12T17:26:24.120Z,98904.98
2023-03-12T17:28:52.616Z,98902.02
2023-03-12T17:31:25.119Z,98908.77
2023-03-12T17:33:53.551Z,98915.32
2023-03-12T17:36:21.853Z,98909.88
2023-03-12T17:38:51.077Z,98910.37
2023-03-12T17:41:26.551Z,98913.14
2023-03-12T17:43:58.566Z,98909.16
2023-03-12T17:46:27.280Z,98907.45
2023-03-12T17:48:55.808Z,98903.61
2023-03-12T17:51:26.684Z,98906.08
2023-03-12T17:53:55.069Z,98904.31
2023-03-12T17:56:23.620Z,98904.98
2023-03-12T17:58:51.967Z,98897.27
2023-03-12T18:01:20.483Z,98889.90
2023-03-12T18:03:51.251Z,98889.35
2023-03-12T18:06:20.024Z,98890.98
2023-03-12T18:08:48.450Z,98890.39
2023-03-12T18:11:16.935Z,98889.41
2023-03-12T18:13:47.631Z,98887.56
2023-03-12T18:16:17.012Z,98892.30
2023-03-12T18:18:45.242Z,98899.25
2023-03-12T18:21:13.492Z,98901.11
2023-03-12T18:23:43.978Z,98896.45
2023-03-12T18:26:12.517Z,98898.30
2023-03-12T18:28:40.762Z,98894.90
2023-03-12T18:31:09.720Z,98893.92
2023-03-12T18:33:39.310Z,98888.70
2023-03-12T18:36:08.555Z,98888.35
2023-03-12T18:38:37.040Z,98893.43
2023-03-12T18:41:08.418Z,98898.86
2023-03-12T18:43:40.263Z,98900.02
2023-03-12T18:46:09.296Z,98897.89
2023-03-12T18:48:37.799Z,98899.48
2023-03-12T18:51:06.101Z,98904.95
2023-03-12T18:53:34.340Z,98896.45
2023-03-12T18:56:03.012Z,98893.54
2023-03-12T18:58:31.580Z,98891.77
2023-03-12T19:01:00.493Z,98890.89
2023-03-12T19:03:33.839Z,98894.13
2023-03-12T19:06:11.464Z,98895.00
2023-03-12T19:08:40.705Z,98895.77
2023-03-12T19:11:14.588Z,98897.72
2023-03-12T19:13:43.725Z,98899.39
2023-03-12T19:16:12.940Z,98899.91
2023-03-12T19:18:42.032Z,98897.89
2023-03-12T19:21:10.630Z,98901.87
2023-03-12T19:23:40.633Z,98900.33
2023-03-12T19:26:09.215Z,98905.43
2023-03-12T19:28:39.393Z,98910.39
2023-03-12T19:31:11.922Z,98913.09
2023-03-12T19:33:44.066Z,98915.98
2023-03-12T19:36:12.650Z,98917.70
2023-03-12T19:38:42.175Z,98912.57
2023-03-12T19:41:11.229Z,98913.71
2023-03-12T19:43:41.591Z,98911.38
2023-03-12T19:46:12.608Z,98918.59
2023-03-12T19:48:48.604Z,98919.36
2023-03-12T19:51:23.082Z,98917.97
2023-03-12T19:53:53.411Z,98918.20
2023-03-12T19:56:28.945Z,98920.13
2023-03-12T19:58:58.876Z,98921.90
2023-03-12T20:01:31.854Z,98921.64
2023-03-12T20:04:02.555Z,98925.83
2023-03-12T20:06:33.022Z,98928.65
2023-03-12T20:09:03.177Z,98930.01
2023-03-12T20:11:36.042Z,98932.89
2023-03-12T20:14:06.855Z,98931.33
2023-03-12T20:16:37.950Z,98928.34
2023-03-12T20:19:07.452Z,98920.36
2023-03-12T20:21:43.347Z,98918.09
2023-03-12T20:24:13.860Z,98913.41
2023-03-12T20:26:43.440Z,98907.84
2023-03-12T20:29:11.868Z,98909.66
2023-03-12T20:31:42.918Z,98914.29
2023-03-12T20:34:11.301Z,98914.61
2023-03-12T20:36:39.631Z,98909.61
2023-03-12T20:39:08.118Z,98909.67
2023-03-12T20:41:36.764Z,98919.07
2023-03-12T20:44:05.194Z,98923.37
2023-03-12T20:46:33.714Z,98924.72
2023-03-12T20:49:02.211Z,98927.30
2023-03-12T20:51:34.639Z,98919.91
2023-03-12T20:54:03.634Z,98913.24
2023-03-12T20:56:32.131Z,98910.07
2023-03-12T20:59:00.767Z,98910.52
2023-03-12T21:01:29.079Z,98900.80
2023-03-12T21:03:58.549Z,98889.98
2023-03-12T21:06:27.634Z,98885.11
2023-03-12T21:08:56.895Z,98879.83
2023-03-12T21:11:26.909Z,98874.19
2023-03-12T21:13:55.352Z,98874.64
2023-03-12T21:16:23.993Z,98863.36
2023-03-12T21:21:38.876Z,98864.94
2023-03-12T21:24:07.213Z,98864.82
2023-03-12T21:26:35.703Z,98860.72
2023-03-12T21:29:04.475Z,98856.08
2023-03-12T21:31:32.852Z,98849.44
2023-03-12T21:34:01.055Z,98842.40
2023-03-12T21:36:29.886Z,98838.17
2023-03-12T21:39:01.185Z,98839.64
2023-03-12T21:41:29.373Z,98836.22
2023-03-12T21:44:02.457Z,98831.55
2023-03-12T21:46:31.216Z,98825.10
2023-03-12T21:48:59.526Z,98826.02
2023-03-12T21:51:27.862Z,98823.63
2023-03-12T21:53:57.728Z,98825.81
2023-03-12T21:56:30.410Z,98819.59
2023-03-12T21:58:59.521Z,98813.35
2023-03-12T22:01:28.445Z,98817.89
2023-03-12T22:03:56.655Z,98812.09
2023-03-12T22:06:25.088Z,98809.58
2023-03-12T22:08:53.398Z,98803.87
2023-03-12T22:11:22.640Z,98800.53
2023-03-12T22:13:50.970Z,98799.29
2023-03-12T22:16:19.937Z,98802.10
2023-03-12T22:18:48.316Z,98799.81
2023-03-12T22:21:22.371Z,98797.51
2023-03-12T22:23:52.881Z,98791.34
2023-03-12T22:26:23.597Z,98788.28
2023-03-12T22:28:57.548Z,98787.20
2023-03-12T22:31:27.714Z,98790.52
2023-03-12T22:33:56.798Z,98789.61
2023-03-12T22:36:25.071Z,98787.80
2023-03-12T22:38:53.432Z,98783.19
2023-03-12T22:41:23.420Z,98779.83
2023-03-12T22:43:54.120Z,98775.43
2023-03-12T22:46:25.132Z,98771.20
2023-03-12T22:49:01.454Z,98770.11
2023-03-12T22:51:31.715Z,98766.17
2023-03-12T22:54:00.492Z,98767.69
2023-03-12T22:56:29.181Z,98767.62
2023-03-12T22:58:57.572Z,98766.86
2023-03-12T23:01:26.337Z,98763.48
2023-03-12T23:03:54.763Z,98766.09
2023-03-12T23:06:25.957Z,98766.88
2023-03-12T23:08:55.148Z,98769.21
2023-03-12T23:11:25.654Z,98769.82
2023-03-12T23:13:54.480Z,98767.82
2023-03-12T23:16:25.786Z,98769.37
2023-03-12T23:18:55.276Z,98772.77
2023-03-12T23:21:24.386Z,98770.80
2023-03-12T23:23:53.214Z,98768.52
2023-03-12T23:26:24.559Z,98769.54
2023-03-12T23:28:58.116Z,98770.77
2023-03-12T23:31:28.634Z,98770.73
2023-03-12T23:33:58.624Z,98771.30
2023-03-12T23:36:27.569Z,98765.92
2023-03-12T23:38:56.335Z,98768.67
2023-03-12T23:41:29.533Z,98769.45
2023-03-12T23:43:59.005Z,98765.60
2023-03-12T23:46:27.984Z,98755.17
2023-03-12T23:48:57.198Z,98747.92
2023-03-12T23:51:34.256Z,98749.96
2023-03-12T23:54:07.226Z,98760.56
2023-03-12T23:56:38.341Z,98761.92
2023-03-12T23:59:08.644Z,98765.05
